Southern Lily — 9VJK4 — position and weather

sailwx.info

Track history (hours):
 
Tides and Currents Weather Stations Pressure Air Temp Water Temp Dewpoint Dewpoint Depression Visibility Wind Speed Wind Dir Waves Ship Positions

Southern Lily

Last reported at 2015-Jul-23 12:32 UTC. Time now 2015-Aug-03 04:37 UTC.
Position S 36°16' E 174°58'.
Warning: this ship's position is 10 days out of date.

Length 146 m; draft 7.7 m.

Type: Cargo ship. MMSI: 565050000.

Date/timePositionNaut miles runAvg speedWind from/ knotsBaromVisibWave heightAir tempDewpointWater temp
2015-Jul-23 12:32S 36°16' E 174°58'9 8.8
2015-Jul-23 11:33S 36°25' E 174°60'9 8.5
2015-Jul-23 10:34S 36°33' E 174°59'8 8.4
2015-Jul-23 09:33S 36°41' E 174°54'9 9.2
2015-Jul-23 08:34S 36°50' E 174°50'3 2.6
2015-Jul-23 07:31S 36°51' E 174°47'0 0.0
2015-Jul-23 06:31S 36°51' E 174°47'0 0.0
2015-Jul-23 05:31S 36°51' E 174°47'0 0.0
2015-Jul-23 04:31S 36°51' E 174°47'0 0.0
2015-Jul-23 03:31S 36°51' E 174°47'0 0.0
2015-Jul-23 02:31S 36°51' E 174°47'0 0.0
2015-Jul-23 01:31S 36°51' E 174°47'0 0.0
2015-Jul-23 00:31S 36°51' E 174°47'0 0.0
2015-Jul-22 23:31S 36°51' E 174°47'0 0.0
2015-Jul-22 22:31S 36°51' E 174°47'0 0.0
2015-Jul-22 21:31S 36°51' E 174°47'0 0.0
2015-Jul-22 20:31S 36°51' E 174°47'0 0.0
2015-Jul-22 19:31S 36°51' E 174°47'0 0.0
2015-Jul-22 18:28S 36°51' E 174°47'0 0.0
2015-Jul-22 17:31S 36°51' E 174°47'0 0.0
2015-Jul-22 16:31S 36°51' E 174°47'0 0.0
2015-Jul-22 15:28S 36°51' E 174°47'0 0.0
2015-Jul-22 14:31S 36°51' E 174°47'0 0.0
2015-Jul-22 13:31S 36°51' E 174°47'0 0.0
2015-Jul-22 12:31S 36°51' E 174°47'0 0.0
2015-Jul-22 11:31S 36°51' E 174°47'0 0.0
2015-Jul-22 10:31S 36°51' E 174°47'0 0.0
2015-Jul-22 09:31S 36°51' E 174°47'0 0.0
2015-Jul-22 08:31S 36°51' E 174°47'0 0.0
2015-Jul-22 07:28S 36°51' E 174°47'0 0.0
2015-Jul-22 06:31S 36°51' E 174°47'0 0.0
2015-Jul-22 05:31S 36°51' E 174°47'0 0.0
2015-Jul-22 04:31S 36°51' E 174°47'0 0.0
2015-Jul-22 03:28S 36°51' E 174°47'0 0.0
2015-Jul-22 02:31S 36°51' E 174°47'0 0.0
2015-Jul-22 01:31S 36°51' E 174°47'0 0.0
2015-Jul-22 00:31S 36°51' E 174°47'0 0.0
2015-Jul-21 23:31S 36°51' E 174°47'0 0.0
2015-Jul-21 22:31S 36°51' E 174°47'0 0.0
2015-Jul-21 21:31S 36°51' E 174°47'0 0.0
2015-Jul-21 20:31S 36°51' E 174°47'0 0.0
2015-Jul-21 19:31S 36°51' E 174°47'0 0.0
2015-Jul-21 18:28S 36°51' E 174°47'0 0.0
2015-Jul-21 17:28S 36°51' E 174°47'0 0.0
2015-Jul-21 16:28S 36°51' E 174°47'0 0.0
2015-Jul-21 15:28S 36°51' E 174°47'0 0.0
2015-Jul-21 14:28S 36°51' E 174°47'0 0.0
2015-Jul-21 13:28S 36°51' E 174°47'0 0.0
2015-Jul-21 12:28S 36°51' E 174°47'0 0.0
2015-Jul-21 11:28S 36°51' E 174°47'0 0.0
2015-Jul-21 10:28S 36°51' E 174°47'0 0.0
2015-Jul-21 09:28S 36°51' E 174°47'0 0.0
2015-Jul-21 08:33S 36°51' E 174°47'0 0.0
2015-Jul-21 07:33S 36°51' E 174°47'3 3.1
2015-Jul-21 06:33S 36°49' E 174°50'8 7.9
2015-Jul-21 05:33S 36°41' E 174°53'7 7.1
2015-Jul-21 04:33S 36°35' E 174°58'7 7.3
2015-Jul-21 03:33S 36°28' E 174°60'8 7.7
2015-Jul-21 02:33S 36°21' E 174°59'9 8.8
2015-Jul-21 01:33S 36°12' E 174°58'  
Track history (hours):
 
Tides and Currents Weather Stations Pressure Air Temp Water Temp Dewpoint Dewpoint Depression Visibility Wind Speed Wind Dir Waves Ship Positions

Southern Lily

Last reported at 2015-Jul-23 12:32 UTC. Time now 2015-Aug-03 04:37 UTC.
Position S 36°16' E 174°58'.
Warning: this ship's position is 10 days out of date.

Length 146 m; draft 7.7 m.

Type: Cargo ship. MMSI: 565050000.

Date/timePositionNaut miles runAvg speedWind from/ knotsBaromVisibWave heightAir tempDewpointWater temp
2015-Jul-23 12:32S 36°16' E 174°58'9 8.8
2015-Jul-23 11:33S 36°25' E 174°60'9 8.5
2015-Jul-23 10:34S 36°33' E 174°59'8 8.4
2015-Jul-23 09:33S 36°41' E 174°54'9 9.2
2015-Jul-23 08:34S 36°50' E 174°50'3 2.6
2015-Jul-23 07:31S 36°51' E 174°47'0 0.0
2015-Jul-23 06:31S 36°51' E 174°47'0 0.0
2015-Jul-23 05:31S 36°51' E 174°47'0 0.0
2015-Jul-23 04:31S 36°51' E 174°47'0 0.0
2015-Jul-23 03:31S 36°51' E 174°47'0 0.0
2015-Jul-23 02:31S 36°51' E 174°47'0 0.0
2015-Jul-23 01:31S 36°51' E 174°47'0 0.0
2015-Jul-23 00:31S 36°51' E 174°47'0 0.0
2015-Jul-22 23:31S 36°51' E 174°47'0 0.0
2015-Jul-22 22:31S 36°51' E 174°47'0 0.0
2015-Jul-22 21:31S 36°51' E 174°47'0 0.0
2015-Jul-22 20:31S 36°51' E 174°47'0 0.0
2015-Jul-22 19:31S 36°51' E 174°47'0 0.0
2015-Jul-22 18:28S 36°51' E 174°47'0 0.0
2015-Jul-22 17:31S 36°51' E 174°47'0 0.0
2015-Jul-22 16:31S 36°51' E 174°47'0 0.0
2015-Jul-22 15:28S 36°51' E 174°47'0 0.0
2015-Jul-22 14:31S 36°51' E 174°47'0 0.0
2015-Jul-22 13:31S 36°51' E 174°47'0 0.0
2015-Jul-22 12:31S 36°51' E 174°47'0 0.0
2015-Jul-22 11:31S 36°51' E 174°47'0 0.0
2015-Jul-22 10:31S 36°51' E 174°47'0 0.0
2015-Jul-22 09:31S 36°51' E 174°47'0 0.0
2015-Jul-22 08:31S 36°51' E 174°47'0 0.0
2015-Jul-22 07:28S 36°51' E 174°47'0 0.0
2015-Jul-22 06:31S 36°51' E 174°47'0 0.0
2015-Jul-22 05:31S 36°51' E 174°47'0 0.0
2015-Jul-22 04:31S 36°51' E 174°47'0 0.0
2015-Jul-22 03:28S 36°51' E 174°47'0 0.0
2015-Jul-22 02:31S 36°51' E 174°47'0 0.0
2015-Jul-22 01:31S 36°51' E 174°47'0 0.0
2015-Jul-22 00:31S 36°51' E 174°47'0 0.0
2015-Jul-21 23:31S 36°51' E 174°47'0 0.0
2015-Jul-21 22:31S 36°51' E 174°47'0 0.0
2015-Jul-21 21:31S 36°51' E 174°47'0 0.0
2015-Jul-21 20:31S 36°51' E 174°47'0 0.0
2015-Jul-21 19:31S 36°51' E 174°47'0 0.0
2015-Jul-21 18:28S 36°51' E 174°47'0 0.0
2015-Jul-21 17:28S 36°51' E 174°47'0 0.0
2015-Jul-21 16:28S 36°51' E 174°47'0 0.0
2015-Jul-21 15:28S 36°51' E 174°47'0 0.0
2015-Jul-21 14:28S 36°51' E 174°47'0 0.0
2015-Jul-21 13:28S 36°51' E 174°47'0 0.0
2015-Jul-21 12:28S 36°51' E 174°47'0 0.0
2015-Jul-21 11:28S 36°51' E 174°47'0 0.0
2015-Jul-21 10:28S 36°51' E 174°47'0 0.0
2015-Jul-21 09:28S 36°51' E 174°47'0 0.0
2015-Jul-21 08:33S 36°51' E 174°47'0 0.0
2015-Jul-21 07:33S 36°51' E 174°47'3 3.1
2015-Jul-21 06:33S 36°49' E 174°50'8 7.9
2015-Jul-21 05:33S 36°41' E 174°53'7 7.1
2015-Jul-21 04:33S 36°35' E 174°58'7 7.3
2015-Jul-21 03:33S 36°28' E 174°60'8 7.7
2015-Jul-21 02:33S 36°21' E 174°59'9 8.8
2015-Jul-21 01:33S 36°12' E 174°58'  

Dump ship's entire track history